Time;durP1;ratioP1;P1;durP2;ratioP2;P2;SDS_P1;SDS_P2;PMS_P1;PMS_P2;Temp;Humidity;BMP_temperature;BMP_pressure;BME280_temperature;BME280_humidity;BME280_pressure;Samples;Min_cycle;Max_cycle;Signal;HPM_P1;HPM_P2
2024/02/21 00:00:39;;;;;;;3.90;1.50;;;;;;;3.37;98.58;97268.77;108790;1265;28804;-74
2024/02/21 00:03:32;;;;;;;3.60;1.70;;;;;;;3.36;98.63;97269.47;108793;1268;22530;-74
2024/02/21 00:06:06;;;;;;;3.60;2.10;;;;;;;3.35;98.66;97274.33;108894;1268;25952;-73
2024/02/21 00:08:38;;;;;;;3.00;1.90;;;;;;;3.37;98.94;97274.86;108821;1268;22978;-74
2024/02/21 00:11:16;;;;;;;3.90;1.80;;;;;;;3.40;98.86;97276.07;108728;1265;22572;-74
2024/02/21 00:13:49;;;;;;;4.70;2.70;;;;;;;3.41;98.78;97275.89;108818;1271;22631;-74
2024/02/21 00:16:26;;;;;;;3.20;2.30;;;;;;;3.41;98.89;97276.21;108647;1271;199472;-74
2024/02/21 00:19:01;;;;;;;6.20;3.30;;;;;;;3.40;99.22;97274.45;108795;1265;24596;-74
2024/02/21 00:21:33;;;;;;;7.20;3.30;;;;;;;3.38;99.36;97273.50;108851;1271;25273;-74
2024/02/21 00:24:04;;;;;;;7.10;3.00;;;;;;;3.37;99.28;97270.30;108808;1265;23889;-74
2024/02/21 00:26:36;;;;;;;6.70;2.80;;;;;;;3.35;99.44;97270.69;108855;1271;22525;-74
2024/02/21 00:29:10;;;;;;;6.30;3.10;;;;;;;3.34;99.40;97275.90;108828;1265;22544;-74
2024/02/21 00:31:44;;;;;;;6.80;3.00;;;;;;;3.36;99.27;97268.47;108895;1271;22520;-74
2024/02/21 00:34:18;;;;;;;5.00;2.90;;;;;;;3.40;99.31;97273.55;108817;1265;24151;-74
2024/02/21 00:36:50;;;;;;;5.30;3.20;;;;;;;3.44;99.30;97273.04;108868;1271;25418;-74
2024/02/21 00:39:21;;;;;;;6.70;3.50;;;;;;;3.47;99.13;97271.86;108839;1268;25300;-74
2024/02/21 00:41:55;;;;;;;8.40;3.40;;;;;;;3.50;99.13;97267.08;108915;1271;25401;-74
2024/02/21 00:44:29;;;;;;;6.00;3.20;;;;;;;3.52;98.98;97267.13;108850;1271;22553;-74
2024/02/21 00:47:03;;;;;;;5.70;2.70;;;;;;;3.50;98.66;97265.50;108847;1271;22530;-74
2024/02/21 00:49:37;;;;;;;8.70;3.00;;;;;;;3.48;98.43;97263.35;108873;1271;22526;-74
2024/02/21 00:52:08;;;;;;;6.00;2.90;;;;;;;3.46;98.23;97263.49;108913;1271;24307;-74
2024/02/21 00:54:40;;;;;;;7.70;3.40;;;;;;;3.42;98.16;97258.77;108823;1271;22661;-74
2024/02/21 00:57:14;;;;;;;6.40;2.70;;;;;;;3.38;98.02;97261.77;108828;1265;25300;-74
2024/02/21 00:59:46;;;;;;;6.10;2.60;;;;;;;3.34;97.88;97264.02;108696;1268;23004;-74
2024/02/21 01:02:17;;;;;;;9.70;3.10;;;;;;;3.32;97.85;97261.86;108805;1268;22846;-74
2024/02/21 01:04:52;;;;;;;7.20;2.80;;;;;;;3.26;97.60;97261.48;108748;1271;22803;-74
2024/02/21 01:07:26;;;;;;;6.50;2.80;;;;;;;3.23;97.61;97262.85;108882;1256;22529;-74
2024/02/21 01:09:58;;;;;;;4.70;2.50;;;;;;;3.22;97.46;97261.61;108707;1271;22516;-74
2024/02/21 01:12:30;;;;;;;4.90;2.30;;;;;;;3.20;97.43;97260.62;108772;1268;22543;-74
2024/02/21 01:15:11;;;;;;;4.10;2.40;;;;;;;3.21;97.39;97256.63;108907;1265;24015;-74
2024/02/21 01:17:46;;;;;;;3.60;2.10;;;;;;;3.19;97.22;97254.03;108846;1268;22528;-74
2024/02/21 01:20:19;;;;;;;5.30;2.40;;;;;;;3.15;97.19;97247.05;108805;1271;23745;-74
2024/02/21 01:22:53;;;;;;;5.40;2.50;;;;;;;3.12;97.26;97240.64;108837;1250;23897;-74
2024/02/21 01:25:25;;;;;;;5.10;2.70;;;;;;;3.12;97.14;97241.84;108832;1268;22534;-74
2024/02/21 01:27:58;;;;;;;8.80;3.50;;;;;;;3.07;97.23;97238.57;108868;1271;25301;-74
2024/02/21 01:30:33;;;;;;;6.50;3.20;;;;;;;3.03;97.36;97237.40;108829;1271;22531;-74
2024/02/21 01:33:12;;;;;;;6.20;2.70;;;;;;;2.99;97.34;97238.13;108865;1265;24219;-74
2024/02/21 01:35:44;;;;;;;5.20;2.20;;;;;;;2.98;97.36;97238.59;108869;1271;25372;-74
2024/02/21 01:38:15;;;;;;;6.20;2.50;;;;;;;3.01;97.45;97239.48;108808;1271;22522;-74
2024/02/21 01:40:49;;;;;;;6.20;2.90;;;;;;;3.02;97.39;97236.73;108805;1271;22522;-74
2024/02/21 01:43:21;;;;;;;3.40;1.70;;;;;;;3.04;97.38;97233.23;108783;1265;22600;-74
2024/02/21 01:45:54;;;;;;;7.20;2.60;;;;;;;3.06;97.30;97232.45;108881;1270;22530;-74
2024/02/21 01:48:26;;;;;;;5.50;2.10;;;;;;;3.07;97.19;97231.71;108825;1266;25375;-74
2024/02/21 01:51:02;;;;;;;3.40;1.80;;;;;;;3.07;97.13;97227.20;108867;1271;22532;-74
2024/02/21 01:53:44;;;;;;;4.40;2.40;;;;;;;3.07;97.15;97225.40;108837;1268;22630;-74
2024/02/21 01:56:15;;;;;;;3.80;1.90;;;;;;;3.06;97.15;97230.77;108850;1271;22514;-74
2024/02/21 01:58:48;;;;;;;4.80;2.40;;;;;;;3.05;97.13;97228.19;108801;1265;22629;-75
2024/02/21 02:01:35;;;;;;;5.70;2.90;;;;;;;3.06;97.09;97225.89;108866;1271;22528;-74
2024/02/21 02:04:07;;;;;;;6.00;2.80;;;;;;;3.06;97.25;97225.69;108866;1272;22526;-74
2024/02/21 02:06:47;;;;;;;5.90;2.80;;;;;;;3.05;97.28;97222.35;108876;1268;24787;-74
2024/02/21 02:09:20;;;;;;;4.80;2.70;;;;;;;3.07;97.45;97223.09;108681;1272;22654;-74
2024/02/21 02:11:54;;;;;;;6.30;2.50;;;;;;;3.05;97.26;97221.74;108803;1271;22520;-74
2024/02/21 02:14:26;;;;;;;5.90;2.30;;;;;;;3.03;97.18;97218.84;108791;1271;22531;-74
2024/02/21 02:17:00;;;;;;;5.10;2.80;;;;;;;2.98;97.06;97215.26;108853;1271;22517;-74
2024/02/21 02:19:36;;;;;;;6.00;3.20;;;;;;;2.91;96.91;97209.05;108748;1272;25113;-74
2024/02/21 02:22:18;;;;;;;8.60;3.80;;;;;;;2.86;97.08;97210.63;108829;1271;22567;-74
2024/02/21 02:24:50;;;;;;;7.30;3.30;;;;;;;2.84;97.18;97209.85;108801;1271;22520;-75
2024/02/21 02:27:22;;;;;;;7.80;3.70;;;;;;;2.85;97.27;97207.42;108782;1269;22554;-74
2024/02/21 02:29:56;;;;;;;7.30;3.70;;;;;;;2.84;97.28;97205.45;108825;1271;22778;-74
2024/02/21 02:32:34;;;;;;;8.60;2.70;;;;;;;2.84;97.28;97204.09;108811;1271;23596;-74
2024/02/21 02:35:14;;;;;;;7.20;3.10;;;;;;;2.85;97.41;97201.02;108789;1271;23938;-74
2024/02/21 02:37:54;;;;;;;6.20;2.90;;;;;;;2.87;97.43;97199.79;108844;1268;22654;-73
2024/02/21 02:40:28;;;;;;;8.50;3.80;;;;;;;2.92;97.70;97198.73;108735;1268;22510;-74
2024/02/21 02:43:01;;;;;;;6.80;2.50;;;;;;;2.96;97.79;97195.40;108771;1271;22517;-74
2024/02/21 02:45:35;;;;;;;4.70;2.70;;;;;;;3.01;97.83;97189.41;108786;1271;22524;-74
2024/02/21 02:48:10;;;;;;;5.80;2.70;;;;;;;3.05;97.84;97178.67;108718;1271;22518;-74
2024/02/21 02:50:41;;;;;;;5.00;2.90;;;;;;;3.05;97.74;97172.95;108797;1271;22531;-74
2024/02/21 02:53:15;;;;;;;6.10;3.30;;;;;;;3.04;97.63;97180.86;108764;1271;23127;-74
2024/02/21 02:55:46;;;;;;;7.10;2.60;;;;;;;2.99;97.44;97183.29;108865;1266;22519;-74
2024/02/21 02:58:17;;;;;;;6.70;3.50;;;;;;;2.99;97.62;97175.47;108744;1265;25471;-74
2024/02/21 03:00:51;;;;;;;7.70;2.80;;;;;;;3.01;97.73;97167.15;108774;1250;22697;-74
2024/02/21 03:03:22;;;;;;;8.20;3.10;;;;;;;2.99;97.58;97170.19;108833;1271;23817;-74
2024/02/21 03:05:54;;;;;;;5.80;2.70;;;;;;;2.97;97.38;97174.64;108862;1271;22513;-73
2024/02/21 03:08:26;;;;;;;6.60;3.50;;;;;;;2.93;97.28;97184.45;108855;1270;22521;-74
2024/02/21 03:10:57;;;;;;;7.00;3.00;;;;;;;2.90;97.37;97191.21;108789;1265;22533;-73
2024/02/21 03:13:31;;;;;;;6.50;2.60;;;;;;;2.88;97.38;97188.70;109012;1267;22534;-74
2024/02/21 03:16:02;;;;;;;5.50;2.40;;;;;;;2.88;97.38;97183.94;108864;1271;22611;-74
2024/02/21 03:18:39;;;;;;;5.70;2.10;;;;;;;2.88;97.48;97180.80;108806;1265;23849;-74
2024/02/21 03:21:13;;;;;;;3.70;2.20;;;;;;;2.90;97.57;97182.11;108806;1254;23187;-74
2024/02/21 03:23:47;;;;;;;8.20;3.10;;;;;;;2.94;97.60;97181.59;108736;1272;24664;-73
2024/02/21 03:26:20;;;;;;;4.90;3.10;;;;;;;2.98;97.73;97177.66;108742;1265;22532;-74
2024/02/21 03:28:51;;;;;;;5.00;2.60;;;;;;;3.05;97.89;97175.94;108793;1272;24407;-74
2024/02/21 03:31:24;;;;;;;4.40;2.50;;;;;;;3.07;97.82;97174.23;108939;1265;25420;-74
2024/02/21 03:34:02;;;;;;;3.90;2.20;;;;;;;3.06;97.59;97176.61;108897;1271;22569;-74
2024/02/21 03:36:35;;;;;;;4.50;2.80;;;;;;;3.03;97.48;97176.64;108923;1265;23233;-74
2024/02/21 03:39:13;;;;;;;3.90;2.30;;;;;;;3.01;97.47;97179.92;108897;1271;22696;-73
2024/02/21 03:41:47;;;;;;;6.20;2.70;;;;;;;2.98;97.52;97181.33;108755;1267;22529;-74
2024/02/21 03:44:25;;;;;;;3.80;2.30;;;;;;;2.99;97.66;97184.42;108773;1271;22620;-73
2024/02/21 03:46:59;;;;;;;7.30;2.30;;;;;;;2.97;97.54;97185.08;108774;1272;22534;-74
2024/02/21 03:49:32;;;;;;;5.30;1.90;;;;;;;2.97;97.44;97184.11;108820;1272;22686;-74
2024/02/21 03:52:04;;;;;;;4.60;2.30;;;;;;;2.97;97.54;97181.65;108814;1268;25395;-74
2024/02/21 03:54:39;;;;;;;4.80;2.30;;;;;;;3.01;97.71;97178.04;108773;1271;22539;-74
2024/02/21 03:57:11;;;;;;;5.40;2.50;;;;;;;3.05;97.83;97176.16;108760;1273;24309;-74
2024/02/21 03:59:45;;;;;;;5.70;3.10;;;;;;;3.06;97.73;97181.16;108772;1272;22789;-74
2024/02/21 04:02:18;;;;;;;6.80;3.50;;;;;;;3.07;97.80;97178.32;108775;1268;22510;-74
2024/02/21 04:04:51;;;;;;;5.30;2.50;;;;;;;3.08;97.84;97175.52;108750;1272;22639;-74
2024/02/21 04:07:26;;;;;;;7.70;3.20;;;;;;;3.09;97.64;97176.70;108779;1272;22520;-74
2024/02/21 04:09:59;;;;;;;8.40;2.70;;;;;;;3.13;98.01;97176.03;108775;1272;22785;-74
2024/02/21 04:12:35;;;;;;;5.30;2.80;;;;;;;3.15;97.94;97175.76;108755;1268;22533;-74
2024/02/21 04:15:10;;;;;;;4.00;2.50;;;;;;;3.16;97.74;97177.33;108773;1272;25540;-73
2024/02/21 04:17:44;;;;;;;4.50;2.70;;;;;;;3.17;97.75;97176.48;108768;1270;25301;-74
2024/02/21 04:20:19;;;;;;;4.30;3.00;;;;;;;3.21;97.90;97172.51;108704;1267;22528;-74
2024/02/21 04:22:54;;;;;;;5.30;2.60;;;;;;;3.24;97.81;97164.75;108709;1271;25000;-73
2024/02/21 04:25:26;;;;;;;7.00;3.00;;;;;;;3.21;97.72;97166.05;108759;1272;24332;-74
2024/02/21 04:28:06;;;;;;;7.20;3.30;;;;;;;3.19;97.66;97167.25;108761;1272;24316;-73
2024/02/21 04:30:43;;;;;;;8.90;3.60;;;;;;;3.20;97.75;97166.59;108786;1268;22531;-73
2024/02/21 04:33:17;;;;;;;5.00;2.90;;;;;;;3.22;97.88;97163.66;108751;1270;23847;-74
2024/02/21 04:35:54;;;;;;;4.80;2.50;;;;;;;3.21;97.87;97163.80;108828;1272;22567;-74
2024/02/21 04:38:26;;;;;;;4.30;2.70;;;;;;;3.23;98.06;97161.80;108780;1269;22617;-74
2024/02/21 04:40:58;;;;;;;3.90;2.20;;;;;;;3.22;97.76;97159.61;108711;1272;22763;-74
2024/02/21 04:43:36;;;;;;;6.30;2.70;;;;;;;3.17;97.58;97165.21;108782;1273;22524;-74
2024/02/21 04:46:12;;;;;;;6.30;2.50;;;;;;;3.14;97.52;97163.93;108783;1270;22748;-74
2024/02/21 04:48:45;;;;;;;5.40;2.30;;;;;;;3.10;97.38;97158.13;108737;1271;24108;-74
2024/02/21 04:51:19;;;;;;;4.20;2.00;;;;;;;3.05;97.28;97160.02;108754;1270;22503;-74
2024/02/21 04:53:55;;;;;;;3.70;1.90;;;;;;;3.01;97.30;97152.58;108765;1267;25436;-74
2024/02/21 04:56:26;;;;;;;7.30;2.50;;;;;;;2.97;97.29;97153.78;108817;1271;22520;-74
2024/02/21 04:58:58;;;;;;;5.20;2.40;;;;;;;2.95;97.37;97150.31;108743;1271;22561;-74
2024/02/21 05:01:33;;;;;;;5.60;2.80;;;;;;;2.95;97.54;97152.30;108767;1249;22537;-74
2024/02/21 05:04:09;;;;;;;4.60;2.00;;;;;;;2.94;97.44;97146.77;108751;1271;22518;-74
2024/02/21 05:06:41;;;;;;;4.70;2.40;;;;;;;2.91;97.26;97146.89;108797;1272;24379;-74
2024/02/21 05:09:21;;;;;;;5.20;2.20;;;;;;;2.90;97.36;97146.22;108750;1269;22532;-74
2024/02/21 05:11:53;;;;;;;4.90;2.80;;;;;;;2.89;97.35;97146.10;108781;1272;22601;-74
2024/02/21 05:14:24;;;;;;;5.90;2.90;;;;;;;2.88;97.41;97145.43;108782;1267;22528;-74
2024/02/21 05:16:56;;;;;;;4.80;2.40;;;;;;;2.86;97.39;97145.54;108770;1250;23750;-74
2024/02/21 05:19:30;;;;;;;6.60;2.30;;;;;;;2.85;97.36;97142.16;108737;1270;22522;-74
2024/02/21 05:22:05;;;;;;;5.20;2.20;;;;;;;2.85;97.37;97141.89;108754;1265;22516;-74
2024/02/21 05:24:40;;;;;;;4.50;2.00;;;;;;;2.85;97.34;97140.75;108674;1267;22534;-74
2024/02/21 05:27:11;;;;;;;3.60;2.00;;;;;;;2.84;97.29;97137.84;108684;1272;24238;-74
2024/02/21 05:29:45;;;;;;;7.00;2.70;;;;;;;2.79;97.09;97136.77;108789;1270;23880;-74
2024/02/21 05:32:18;;;;;;;4.80;2.20;;;;;;;2.77;97.14;97140.13;108857;1271;22504;-74
2024/02/21 05:34:52;;;;;;;5.10;2.60;;;;;;;2.73;97.09;97136.39;108812;1272;26462;-74
2024/02/21 05:37:23;;;;;;;5.60;2.90;;;;;;;2.70;97.09;97136.67;108848;1272;22528;-74
2024/02/21 05:39:57;;;;;;;5.70;2.50;;;;;;;2.66;97.19;97144.41;108827;1272;25511;-74
2024/02/21 05:42:29;;;;;;;5.40;2.30;;;;;;;2.67;97.36;97146.75;108830;1271;22520;-74
2024/02/21 05:45:03;;;;;;;5.80;2.60;;;;;;;2.67;97.40;97149.41;108816;1264;23760;-74
2024/02/21 05:47:37;;;;;;;7.40;3.30;;;;;;;2.65;97.43;97151.34;108830;1272;22517;-74
2024/02/21 05:50:10;;;;;;;5.90;2.80;;;;;;;2.67;97.41;97150.33;108825;1270;23015;-74
2024/02/21 05:52:41;;;;;;;5.80;2.10;;;;;;;2.65;97.34;97146.39;108917;1271;24408;-74
2024/02/21 05:55:13;;;;;;;6.40;2.90;;;;;;;2.67;97.47;97139.95;108821;1265;25303;-74
2024/02/21 05:57:46;;;;;;;5.70;2.90;;;;;;;2.68;97.49;97143.96;108820;1268;22536;-74
2024/02/21 06:00:19;;;;;;;5.90;3.00;;;;;;;2.71;97.57;97139.06;108798;1272;22526;-75
2024/02/21 06:02:55;;;;;;;6.40;2.40;;;;;;;2.76;97.66;97135.11;108872;1267;23840;-74
2024/02/21 06:05:30;;;;;;;5.10;2.70;;;;;;;2.80;97.73;97141.46;108814;1272;22510;-74
2024/02/21 06:08:03;;;;;;;5.60;2.90;;;;;;;2.94;98.11;97140.95;108877;1266;22543;-74
2024/02/21 06:10:36;;;;;;;5.40;2.20;;;;;;;3.40;98.37;97133.12;108826;1271;24987;-74
2024/02/21 06:13:09;;;;;;;4.50;2.20;;;;;;;3.91;97.98;97134.70;108873;1271;23293;-74
2024/02/21 06:15:43;;;;;;;7.30;2.90;;;;;;;3.99;96.92;97130.11;108860;1265;24683;-74
2024/02/21 06:18:14;;;;;;;7.30;2.30;;;;;;;3.84;96.55;97131.77;108882;1272;22592;-74
2024/02/21 06:20:46;;;;;;;5.80;2.50;;;;;;;3.78;96.44;97130.43;108828;1271;22529;-74
2024/02/21 06:23:20;;;;;;;3.20;2.30;;;;;;;3.69;96.31;97129.59;108792;1271;22947;-74
2024/02/21 06:25:54;;;;;;;6.80;2.50;;;;;;;3.73;96.50;97130.30;108815;1267;25301;-74
2024/02/21 06:28:26;;;;;;;5.40;2.50;;;;;;;3.85;96.58;97127.80;108868;1268;22587;-74
2024/02/21 06:31:09;;;;;;;3.40;2.30;;;;;;;3.97;96.48;97126.38;108852;1268;22891;-74
2024/02/21 06:33:42;;;;;;;5.40;2.50;;;;;;;4.16;96.35;97124.29;108809;1268;22574;-74
2024/02/21 06:36:13;;;;;;;5.50;2.60;;;;;;;4.30;95.98;97117.92;108874;1268;24434;-74
2024/02/21 06:38:51;;;;;;;5.60;2.40;;;;;;;4.44;96.02;97119.88;108819;1272;25139;-74
2024/02/21 06:41:22;;;;;;;4.90;2.30;;;;;;;4.79;95.98;97112.71;108821;1268;24252;-74
2024/02/21 06:43:53;;;;;;;5.30;2.00;;;;;;;4.78;94.96;97113.99;108827;1268;24246;-74
2024/02/21 06:46:32;;;;;;;5.10;2.30;;;;;;;4.52;94.56;97118.14;108821;1268;22592;-74
2024/02/21 06:49:08;;;;;;;5.90;2.20;;;;;;;4.31;94.37;97120.81;108875;1271;22582;-74
2024/02/21 06:51:42;;;;;;;3.80;1.70;;;;;;;4.27;94.85;97117.89;108860;1266;23830;-74
2024/02/21 06:54:15;;;;;;;4.00;1.90;;;;;;;4.23;94.47;97123.23;108845;1272;22541;-74
2024/02/21 06:56:48;;;;;;;5.50;2.40;;;;;;;4.27;94.88;97127.61;108826;1271;23830;-74
2024/02/21 06:59:20;;;;;;;4.80;2.40;;;;;;;4.31;94.56;97123.11;108752;1265;22711;-74
2024/02/21 07:02:00;;;;;;;4.20;2.00;;;;;;;4.27;94.36;97130.00;108814;1272;22527;-74
2024/02/21 07:04:34;;;;;;;3.80;2.10;;;;;;;4.20;94.13;97133.08;108850;1271;22518;-74
2024/02/21 07:07:09;;;;;;;4.10;2.40;;;;;;;4.07;93.79;97137.42;108818;1272;22781;-74
2024/02/21 07:09:48;;;;;;;4.00;2.20;;;;;;;3.95;93.89;97136.02;108812;1265;25550;-74
2024/02/21 07:12:19;;;;;;;5.90;3.00;;;;;;;3.89;93.87;97134.12;108813;1272;23162;-74
2024/02/21 07:14:51;;;;;;;4.10;2.40;;;;;;;3.82;93.74;97129.33;108818;1250;22522;-74
2024/02/21 07:17:25;;;;;;;5.00;2.50;;;;;;;3.93;94.13;97133.91;108814;1272;23806;-74
2024/02/21 07:19:58;;;;;;;5.80;2.70;;;;;;;5.18;95.42;97130.14;108807;1271;24871;-74
2024/02/21 07:22:29;;;;;;;11.90;3.40;;;;;;;6.52;94.34;97132.09;108841;1272;22518;-75
2024/02/21 07:25:01;;;;;;;5.70;2.30;;;;;;;7.91;93.61;97127.09;108812;1265;22553;-75
2024/02/21 07:27:35;;;;;;;5.40;3.00;;;;;;;8.99;92.52;97122.49;108842;1268;22532;-75
2024/02/21 07:30:11;;;;;;;4.90;3.10;;;;;;;10.13;91.85;97118.30;108816;1267;22476;-75
2024/02/21 07:32:43;;;;;;;6.40;3.10;;;;;;;10.98;90.14;97110.60;108869;1271;26455;-75
2024/02/21 07:35:20;;;;;;;6.00;2.70;;;;;;;10.35;87.05;97113.44;108844;1271;25244;-75
2024/02/21 07:37:54;;;;;;;6.50;3.80;;;;;;;10.14;86.89;97114.17;108828;1271;22525;-75
2024/02/21 07:40:26;;;;;;;4.70;3.00;;;;;;;10.17;86.95;97111.07;108794;1264;22988;-75
2024/02/21 07:42:57;;;;;;;3.90;2.80;;;;;;;10.61;86.07;97110.00;108859;1271;23813;-75
2024/02/21 07:45:31;;;;;;;6.90;3.60;;;;;;;11.02;84.16;97116.60;108793;1271;22539;-75
2024/02/21 07:48:05;;;;;;;6.70;3.40;;;;;;;11.42;82.97;97114.26;108831;1272;22568;-74
2024/02/21 07:50:41;;;;;;;5.90;4.00;;;;;;;11.87;81.55;97112.83;108847;1268;22538;-74
2024/02/21 07:53:16;;;;;;;6.60;3.70;;;;;;;12.02;80.02;97103.55;108848;1269;22525;-75
2024/02/21 07:55:47;;;;;;;4.70;3.50;;;;;;;12.36;79.92;97101.11;108834;1271;22825;-74
2024/02/21 07:58:21;;;;;;;5.90;3.90;;;;;;;12.84;78.99;97098.63;108815;1265;22739;-75
2024/02/21 08:00:54;;;;;;;5.60;3.60;;;;;;;13.05;76.85;97089.23;108817;1270;24181;-75
2024/02/21 08:03:26;;;;;;;4.90;3.50;;;;;;;12.78;75.38;97085.11;108891;1271;25245;-75
2024/02/21 08:05:59;;;;;;;7.00;3.40;;;;;;;13.11;75.62;97077.63;108883;1272;25412;-74
2024/02/21 08:08:33;;;;;;;7.00;4.00;;;;;;;13.38;74.78;97074.40;108849;1271;24299;-75
2024/02/21 08:11:07;;;;;;;5.30;3.60;;;;;;;13.52;73.94;97066.31;108821;1272;23995;-75
2024/02/21 08:13:40;;;;;;;6.70;3.20;;;;;;;13.29;72.48;97065.30;108760;1271;22540;-74
2024/02/21 08:16:14;;;;;;;7.10;3.50;;;;;;;12.56;71.42;97065.11;108825;1271;25242;-74
2024/02/21 08:18:46;;;;;;;6.10;3.30;;;;;;;11.76;70.22;97066.70;108773;1265;23304;-74
2024/02/21 08:21:26;;;;;;;5.80;3.00;;;;;;;11.04;69.92;97069.00;108845;1268;22527;-74
2024/02/21 08:23:58;;;;;;;5.90;3.20;;;;;;;10.87;70.43;97065.90;108800;1271;26607;-74
2024/02/21 08:26:35;;;;;;;5.70;2.40;;;;;;;11.42;71.34;97063.23;108777;1272;22521;-74
2024/02/21 08:29:10;;;;;;;6.90;3.00;;;;;;;11.70;69.87;97062.00;108846;1271;22526;-75
2024/02/21 08:31:47;;;;;;;5.90;2.40;;;;;;;11.74;69.35;97060.11;108787;1271;22529;-74
2024/02/21 08:34:18;;;;;;;6.70;3.10;;;;;;;11.55;68.59;97056.65;108716;1271;23979;-74
2024/02/21 08:36:50;;;;;;;5.80;2.50;;;;;;;11.28;67.16;97059.15;108785;1268;22512;-74
2024/02/21 08:39:22;;;;;;;4.40;2.50;;;;;;;11.01;67.27;97060.78;108746;1271;25423;-74
2024/02/21 08:41:53;;;;;;;6.80;3.20;;;;;;;11.32;68.24;97055.21;108709;1271;22780;-74
2024/02/21 08:44:25;;;;;;;5.20;2.30;;;;;;;11.53;67.95;97053.37;108780;1272;25079;-74
2024/02/21 08:47:03;;;;;;;5.00;2.90;;;;;;;11.59;67.76;97052.86;108811;1261;22607;-74
2024/02/21 08:49:37;;;;;;;5.00;2.60;;;;;;;11.54;67.39;97052.36;108842;1271;23548;-74
2024/02/21 08:52:12;;;;;;;5.30;2.30;;;;;;;11.13;66.52;97050.94;108675;1271;22522;-74
2024/02/21 08:54:44;;;;;;;5.20;2.50;;;;;;;10.74;66.77;97052.88;108749;1271;22521;-74
2024/02/21 08:57:18;;;;;;;5.00;2.30;;;;;;;10.39;66.97;97045.38;108787;1270;22919;-74
2024/02/21 08:59:50;;;;;;;4.80;2.30;;;;;;;10.08;67.22;97042.70;108713;1265;22520;-74
2024/02/21 09:03:08;;;;;;;4.40;2.50;;;;;;;10.04;67.23;97043.80;108805;1270;23845;-74
2024/02/21 09:05:42;;;;;;;4.20;2.50;;;;;;;10.04;68.41;97038.73;108670;1266;22698;-74
2024/02/21 09:08:13;;;;;;;4.60;1.90;;;;;;;10.13;69.44;97035.98;108817;1271;25542;-73
2024/02/21 09:10:45;;;;;;;4.20;1.80;;;;;;;10.04;68.86;97032.64;108805;1267;22535;-74
2024/02/21 09:13:22;;;;;;;4.40;1.90;;;;;;;9.87;67.84;97036.38;108746;1271;25272;-74
2024/02/21 09:15:56;;;;;;;6.40;1.50;;;;;;;9.45;66.70;97032.98;108684;1271;24465;-74
2024/02/21 09:18:31;;;;;;;4.60;1.50;;;;;;;9.08;66.67;97029.73;108887;1268;22605;-73
2024/02/21 09:21:07;;;;;;;4.70;1.80;;;;;;;9.12;68.51;97032.81;108825;1265;24231;-74
2024/02/21 09:23:41;;;;;;;4.00;1.70;;;;;;;9.47;69.33;97033.84;108799;1272;22526;-74
2024/02/21 09:26:16;;;;;;;5.20;1.80;;;;;;;9.26;66.71;97039.89;108749;1270;22536;-74
2024/02/21 09:28:48;;;;;;;5.30;1.90;;;;;;;8.77;67.63;97042.16;108760;1271;22527;-74
2024/02/21 09:31:22;;;;;;;6.70;2.40;;;;;;;8.66;68.32;97039.60;108666;1270;25526;-74
2024/02/21 09:33:54;;;;;;;4.50;2.20;;;;;;;8.67;69.19;97040.98;108772;1273;22621;-74
2024/02/21 09:36:28;;;;;;;5.30;2.00;;;;;;;8.79;69.89;97043.02;108625;1273;22629;-74
2024/02/21 09:39:02;;;;;;;6.20;2.10;;;;;;;8.97;69.92;97044.58;108645;1272;22731;-73
2024/02/21 09:41:39;;;;;;;2.80;1.70;;;;;;;8.91;69.55;97049.27;108672;1266;23878;-74
2024/02/21 09:44:19;;;;;;;5.80;2.40;;;;;;;8.84;69.21;97046.54;108757;1272;23745;-73
2024/02/21 09:46:58;;;;;;;4.30;1.90;;;;;;;8.61;68.94;97043.59;108775;1271;22993;-74
2024/02/21 09:49:37;;;;;;;5.10;2.40;;;;;;;8.42;69.46;97047.98;108734;1265;23010;-74
2024/02/21 09:52:13;;;;;;;4.80;2.40;;;;;;;8.66;70.66;97039.60;108669;1273;22526;-74
2024/02/21 09:54:45;;;;;;;7.10;2.70;;;;;;;8.72;70.25;97036.15;108702;1273;25314;-74
2024/02/21 09:57:17;;;;;;;5.40;2.20;;;;;;;8.85;70.73;97036.44;108781;1272;22604;-74
2024/02/21 09:59:53;;;;;;;4.40;1.60;;;;;;;8.59;68.69;97039.13;108742;1271;22522;-73
2024/02/21 10:02:25;;;;;;;5.00;2.00;;;;;;;8.15;68.61;97035.91;108789;1272;25418;-73
2024/02/21 10:05:04;;;;;;;6.50;2.70;;;;;;;7.91;69.38;97035.45;108743;1272;26538;-74
2024/02/21 10:07:42;;;;;;;5.10;1.90;;;;;;;7.88;69.59;97036.59;108778;1270;22614;-73
2024/02/21 10:10:14;;;;;;;6.90;3.10;;;;;;;7.70;69.04;97027.76;108792;1271;22518;-73
2024/02/21 10:12:54;;;;;;;5.80;2.20;;;;;;;7.62;69.68;97035.30;108734;1267;22548;-73
2024/02/21 10:15:26;;;;;;;4.10;1.70;;;;;;;7.65;69.84;97027.61;108771;1268;24870;-73
2024/02/21 10:18:04;;;;;;;5.10;2.20;;;;;;;7.73;69.98;97026.73;108823;1268;22518;-74
2024/02/21 10:20:39;;;;;;;4.30;1.90;;;;;;;8.00;70.87;97023.96;108808;1272;22584;-73
2024/02/21 10:23:16;;;;;;;2.60;1.10;;;;;;;8.22;70.66;97021.04;108781;1270;25792;-73
2024/02/21 10:25:52;;;;;;;4.00;1.50;;;;;;;8.03;68.87;97016.55;108800;1272;22571;-73
2024/02/21 10:28:25;;;;;;;3.60;1.90;;;;;;;7.93;69.45;97021.64;108751;1267;25410;-73
2024/02/21 10:30:57;;;;;;;5.20;2.00;;;;;;;7.97;69.87;97015.02;108752;1272;22507;-74
2024/02/21 10:33:32;;;;;;;2.50;1.60;;;;;;;8.09;69.95;97012.27;108847;1272;22522;-73
2024/02/21 10:36:14;;;;;;;4.60;2.00;;;;;;;8.14;69.10;97008.97;108809;1272;22527;-74
2024/02/21 10:38:46;;;;;;;3.50;1.50;;;;;;;8.30;69.94;97002.67;108761;1273;22534;-73
2024/02/21 10:41:24;;;;;;;5.90;2.10;;;;;;;8.41;69.33;96995.30;108837;1272;22642;-74
2024/02/21 10:44:00;;;;;;;3.90;1.50;;;;;;;8.43;69.46;96991.42;108744;1272;22524;-74
2024/02/21 10:46:38;;;;;;;2.70;1.30;;;;;;;8.35;68.51;96986.60;108736;1272;25268;-74
2024/02/21 10:49:20;;;;;;;1.80;0.80;;;;;;;8.23;67.62;96980.73;108738;1267;22577;-73
2024/02/21 10:51:55;;;;;;;4.30;1.70;;;;;;;8.20;67.29;96974.80;108714;1272;22531;-74
2024/02/21 10:54:47;;;;;;;5.00;2.20;;;;;;;8.31;68.01;96970.02;108754;1272;22519;-74
2024/02/21 10:57:18;;;;;;;1.40;0.70;;;;;;;8.39;68.38;96963.80;108692;1273;25305;-74
2024/02/21 10:59:57;;;;;;;4.90;2.10;;;;;;;8.30;67.37;96956.91;108755;1267;22525;-74
2024/02/21 11:02:31;;;;;;;4.20;2.10;;;;;;;8.25;67.92;96955.39;108846;1272;23283;-74
2024/02/21 11:05:08;;;;;;;3.70;1.80;;;;;;;8.29;68.58;96954.91;108802;1272;22534;-74
2024/02/21 11:07:42;;;;;;;3.20;1.80;;;;;;;8.25;67.90;96953.87;108927;1272;22518;-74
2024/02/21 11:10:28;;;;;;;4.70;1.70;;;;;;;8.06;68.03;96958.60;108815;1272;22536;-74
2024/02/21 11:13:11;;;;;;;4.50;2.30;;;;;;;8.07;68.53;96958.50;108830;1271;25555;-74
2024/02/21 11:15:43;;;;;;;7.00;2.30;;;;;;;8.05;68.33;96948.09;108915;1270;25442;-74
2024/02/21 11:18:23;;;;;;;3.30;1.50;;;;;;;8.12;69.11;96940.20;108857;1270;22520;-74
2024/02/21 11:20:57;;;;;;;4.50;1.70;;;;;;;8.27;69.14;96939.08;108867;1272;22518;-74
2024/02/21 11:23:29;;;;;;;4.40;1.70;;;;;;;8.39;69.44;96938.92;108814;1272;22533;-74
2024/02/21 11:26:11;;;;;;;4.00;1.60;;;;;;;8.68;70.01;96934.52;108853;1271;22567;-74
2024/02/21 11:28:43;;;;;;;3.70;1.90;;;;;;;8.71;68.81;96933.80;108869;1272;22555;-74
2024/02/21 11:31:17;;;;;;;4.10;2.10;;;;;;;8.60;68.64;96934.98;108841;1264;24881;-74
2024/02/21 11:33:53;;;;;;;6.20;2.10;;;;;;;8.75;69.36;96928.59;108834;1272;25244;-74
2024/02/21 11:36:29;;;;;;;3.70;1.30;;;;;;;8.82;68.71;96930.40;108827;1271;22543;-74
2024/02/21 11:39:10;;;;;;;2.50;1.50;;;;;;;8.55;67.86;96924.33;108872;1270;23194;-74
2024/02/21 11:41:41;;;;;;;5.90;2.00;;;;;;;8.51;68.56;96918.55;108849;1269;25386;-74
2024/02/21 11:44:17;;;;;;;4.50;2.00;;;;;;;8.77;69.48;96916.48;108852;1269;25862;-74
2024/02/21 11:46:51;;;;;;;5.10;2.00;;;;;;;8.86;69.09;96925.45;108850;1268;25738;-74
2024/02/21 11:49:29;;;;;;;3.50;1.60;;;;;;;8.70;68.70;96917.34;108843;1269;22541;-74
2024/02/21 11:52:05;;;;;;;5.50;2.00;;;;;;;8.55;68.07;96913.86;108891;1270;24129;-74
2024/02/21 11:54:40;;;;;;;4.50;2.40;;;;;;;8.36;67.70;96910.15;108899;1269;23802;-73
2024/02/21 11:57:14;;;;;;;7.60;1.60;;;;;;;8.26;68.20;96918.84;108872;1264;22526;-74
2024/02/21 11:59:49;;;;;;;3.60;1.80;;;;;;;8.32;67.94;96917.73;108788;1260;22623;-73
2024/02/21 12:02:29;;;;;;;6.30;2.40;;;;;;;8.28;67.55;96910.36;108870;1272;22521;-74
2024/02/21 12:05:07;;;;;;;3.30;1.60;;;;;;;8.20;68.08;96914.23;108859;1269;22522;-74